createdAt,value
2018-09-13T00:01:45.013Z,5.70
2018-09-13T00:04:13.454Z,6.33
2018-09-13T00:06:41.661Z,6.03
2018-09-13T00:09:10.300Z,6.50
2018-09-13T00:11:38.612Z,5.57
2018-09-13T00:14:07.225Z,6.30
2018-09-13T00:16:35.497Z,6.53
2018-09-13T00:19:03.709Z,5.77
2018-09-13T00:21:31.913Z,6.33
2018-09-13T00:24:00.115Z,7.03
2018-09-13T00:26:28.561Z,6.70
2018-09-13T00:28:56.775Z,6.80
2018-09-13T00:31:25.013Z,6.93
2018-09-13T00:33:53.247Z,6.57
2018-09-13T00:36:21.677Z,6.70
2018-09-13T00:38:49.965Z,6.27
2018-09-13T00:41:18.237Z,5.83
2018-09-13T00:43:46.557Z,6.80
2018-09-13T00:46:14.861Z,6.13
2018-09-13T00:48:43.141Z,6.13
2018-09-13T00:51:11.365Z,6.47
2018-09-13T00:53:39.565Z,5.60
2018-09-13T00:56:08.192Z,6.27
2018-09-13T00:58:36.645Z,6.47
2018-09-13T01:01:05.582Z,6.37
2018-09-13T01:03:33.797Z,5.87
2018-09-13T01:06:02.007Z,5.97
2018-09-13T01:08:30.404Z,6.23
2018-09-13T01:10:58.688Z,5.43
2018-09-13T01:13:26.918Z,6.30
2018-09-13T01:15:55.210Z,5.77
2018-09-13T01:18:23.442Z,6.60
2018-09-13T01:20:51.963Z,6.63
2018-09-13T01:23:20.330Z,5.97
2018-09-13T01:25:48.787Z,6.63
2018-09-13T01:28:16.981Z,6.37
2018-09-13T01:30:45.165Z,8.00
2018-09-13T01:33:13.510Z,8.20
2018-09-13T01:35:41.760Z,7.27
2018-09-13T01:38:10.071Z,7.20
2018-09-13T01:40:38.317Z,7.03
2018-09-13T01:43:06.732Z,7.60
2018-09-13T01:45:35.173Z,7.90
2018-09-13T01:48:03.370Z,7.90
2018-09-13T01:50:31.585Z,7.57
2018-09-13T01:52:59.877Z,7.77
2018-09-13T01:55:28.184Z,7.73
2018-09-13T01:57:56.365Z,7.67
2018-09-13T02:00:24.573Z,7.60
2018-09-13T02:02:53.066Z,7.80
2018-09-13T02:05:21.354Z,7.77
2018-09-13T02:07:49.610Z,7.53
2018-09-13T02:10:17.793Z,8.20
2018-09-13T02:12:46.070Z,7.53
2018-09-13T02:15:14.516Z,7.53
2018-09-13T02:17:42.866Z,7.53
2018-09-13T02:20:11.089Z,7.73
2018-09-13T02:22:39.703Z,7.50
2018-09-13T02:25:08.101Z,7.83
2018-09-13T02:27:36.353Z,7.93
2018-09-13T02:30:05.025Z,7.47
2018-09-13T02:32:33.445Z,8.03
2018-09-13T02:35:01.690Z,7.27
2018-09-13T02:37:30.017Z,6.83
2018-09-13T02:39:58.379Z,7.03
2018-09-13T02:42:26.590Z,7.30
2018-09-13T02:44:54.806Z,7.10
2018-09-13T02:47:23.029Z,7.50
2018-09-13T02:49:51.522Z,7.63
2018-09-13T02:52:19.764Z,8.07
2018-09-13T02:54:47.982Z,7.00
2018-09-13T02:57:16.305Z,7.10
2018-09-13T02:59:44.546Z,7.40
2018-09-13T03:02:13.062Z,7.00
2018-09-13T03:04:41.501Z,6.93
2018-09-13T03:07:09.694Z,7.53
2018-09-13T03:09:38.154Z,7.60
2018-09-13T03:12:06.614Z,7.70
2018-09-13T03:14:34.931Z,7.23
2018-09-13T03:17:03.109Z,7.07
2018-09-13T03:19:31.354Z,7.37
2018-09-13T03:21:59.746Z,7.00
2018-09-13T03:24:28.241Z,7.73
2018-09-13T03:26:56.534Z,8.30
2018-09-13T03:29:24.762Z,7.27
2018-09-13T03:31:53.189Z,7.60
2018-09-13T03:34:21.525Z,6.83
2018-09-13T03:36:49.950Z,7.47
2018-09-13T03:39:18.169Z,6.97
2018-09-13T03:41:46.395Z,7.57
2018-09-13T03:44:14.733Z,7.37
2018-09-13T03:46:43.122Z,7.53
2018-09-13T03:49:11.361Z,7.50
2018-09-13T03:51:39.593Z,8.13
2018-09-13T03:54:07.813Z,8.10
2018-09-13T03:56:36.098Z,7.50
2018-09-13T03:59:04.506Z,7.70
2018-09-13T04:01:32.677Z,8.00
2018-09-13T04:04:00.994Z,7.50
2018-09-13T04:06:29.509Z,8.57
2018-09-13T04:08:57.774Z,7.20
2018-09-13T04:11:25.994Z,7.70
2018-09-13T04:13:54.327Z,7.57
2018-09-13T04:16:22.638Z,8.43
2018-09-13T04:18:50.967Z,7.97
2018-09-13T04:21:19.198Z,8.20
2018-09-13T04:23:47.557Z,8.30
2018-09-13T04:26:15.747Z,7.87
2018-09-13T04:28:44.178Z,7.90
2018-09-13T04:31:12.457Z,8.57
2018-09-13T04:33:40.668Z,8.27
2018-09-13T04:36:10.071Z,8.80
2018-09-13T04:38:38.442Z,8.57
2018-09-13T04:41:07.900Z,8.97
2018-09-13T04:43:36.357Z,8.77
2018-09-13T04:46:04.582Z,9.23
2018-09-13T04:48:33.253Z,9.47
2018-09-13T04:51:01.874Z,9.50
2018-09-13T04:53:30.434Z,9.37
2018-09-13T04:55:58.752Z,9.83
2018-09-13T04:58:27.053Z,9.97
2018-09-13T05:00:55.410Z,9.60
2018-09-13T05:03:23.725Z,9.80
2018-09-13T05:05:52.107Z,9.97
2018-09-13T05:08:20.489Z,10.00
2018-09-13T05:10:48.740Z,9.30
2018-09-13T05:13:16.938Z,8.67
2018-09-13T05:15:45.231Z,9.50
2018-09-13T05:18:13.523Z,9.03
2018-09-13T05:20:41.847Z,9.27
2018-09-13T05:23:10.233Z,9.27
2018-09-13T05:25:38.470Z,9.03
2018-09-13T05:28:06.798Z,8.10
2018-09-13T05:30:35.273Z,8.57
2018-09-13T05:33:03.503Z,8.80
2018-09-13T05:35:31.808Z,8.90
2018-09-13T05:38:00.038Z,9.27
2018-09-13T05:40:28.757Z,9.50
2018-09-13T05:42:56.942Z,9.87
2018-09-13T05:45:25.118Z,9.20
2018-09-13T05:47:53.318Z,8.70
2018-09-13T05:50:21.734Z,8.97
2018-09-13T05:52:49.942Z,8.47
2018-09-13T05:55:18.221Z,9.17
2018-09-13T05:57:46.470Z,9.13
2018-09-13T06:00:14.984Z,9.73
2018-09-13T06:02:43.401Z,8.53
2018-09-13T06:05:11.620Z,9.13
2018-09-13T06:07:39.789Z,9.00
2018-09-13T06:10:08.034Z,9.73
2018-09-13T06:12:36.410Z,8.03
2018-09-13T06:15:04.948Z,8.80
2018-09-13T06:17:33.109Z,8.43
2018-09-13T06:20:01.317Z,9.27
2018-09-13T06:22:30.101Z,10.20
2018-09-13T06:24:58.431Z,10.33
2018-09-13T06:27:26.638Z,9.43
2018-09-13T06:29:54.877Z,10.03
2018-09-13T06:32:23.126Z,9.90
2018-09-13T06:34:51.514Z,10.53
2018-09-13T06:37:20.372Z,9.83
2018-09-13T06:39:48.593Z,10.10
2018-09-13T06:42:16.919Z,8.90
2018-09-13T06:44:45.186Z,9.67
2018-09-13T06:47:14.579Z,10.97
2018-09-13T06:49:43.433Z,11.00
2018-09-13T06:52:12.104Z,11.77
2018-09-13T06:54:40.310Z,11.20
2018-09-13T06:57:08.598Z,11.40
2018-09-13T06:59:36.867Z,11.17
2018-09-13T07:02:05.046Z,11.03
2018-09-13T07:04:33.269Z,10.47
2018-09-13T07:07:01.510Z,10.67
2018-09-13T07:09:29.774Z,11.30
2018-09-13T07:11:58.038Z,11.03
2018-09-13T07:14:26.210Z,11.10
2018-09-13T07:16:54.458Z,10.83
2018-09-13T07:19:22.704Z,11.40
2018-09-13T07:21:50.907Z,10.57
2018-09-13T07:24:19.115Z,10.70
2018-09-13T07:26:47.346Z,11.27
2018-09-13T07:29:15.691Z,11.10
2018-09-13T07:31:44.386Z,10.50
2018-09-13T07:34:12.588Z,10.93
2018-09-13T07:36:41.007Z,10.93
2018-09-13T07:39:10.985Z,11.20
2018-09-13T07:41:46.537Z,10.33
2018-09-13T07:44:14.786Z,9.87
2018-09-13T07:46:43.195Z,10.13
2018-09-13T07:49:11.782Z,10.00
2018-09-13T07:51:40.078Z,12.53
2018-09-13T07:54:08.418Z,13.23
2018-09-13T07:56:36.670Z,13.00
2018-09-13T07:59:05.738Z,13.30
2018-09-13T08:01:34.021Z,13.97
2018-09-13T08:04:02.333Z,13.13
2018-09-13T08:06:30.658Z,12.73
2018-09-13T08:08:58.928Z,13.67
2018-09-13T08:11:27.276Z,13.80
2018-09-13T08:13:55.490Z,13.20
2018-09-13T08:16:23.769Z,13.37
2018-09-13T08:18:52.167Z,12.63
2018-09-13T08:21:20.586Z,12.80
2018-09-13T08:23:48.824Z,12.63
2018-09-13T08:26:17.043Z,14.03
2018-09-13T08:28:45.238Z,13.93
2018-09-13T08:31:13.597Z,13.97
2018-09-13T08:33:41.812Z,14.23
2018-09-13T08:36:10.055Z,13.30
2018-09-13T08:38:38.262Z,14.03
2018-09-13T08:41:06.581Z,14.30
2018-09-13T08:43:35.057Z,13.37
2018-09-13T08:46:03.260Z,14.10
2018-09-13T08:48:31.494Z,13.63
2018-09-13T08:50:59.841Z,12.67
2018-09-13T08:53:29.062Z,12.53
2018-09-13T08:55:57.307Z,15.30
2018-09-13T08:58:25.525Z,13.20
2018-09-13T09:00:53.689Z,14.20
2018-09-13T09:03:22.020Z,15.23
2018-09-13T09:05:50.217Z,14.83
2018-09-13T09:08:18.604Z,16.47
2018-09-13T09:10:46.823Z,15.33
2018-09-13T09:13:15.109Z,15.67
2018-09-13T09:15:43.429Z,16.77
2018-09-13T09:18:11.628Z,16.07
2018-09-13T09:20:39.794Z,16.10
2018-09-13T09:23:08.365Z,16.30
2018-09-13T09:25:36.651Z,15.17
2018-09-13T09:28:04.934Z,16.40
2018-09-13T09:30:33.140Z,16.30
2018-09-13T09:33:01.343Z,16.13
2018-09-13T09:35:30.350Z,15.70
2018-09-13T09:37:58.686Z,16.37
2018-09-13T09:40:27.013Z,16.03
2018-09-13T09:42:55.216Z,16.20
2018-09-13T09:45:23.518Z,16.03
2018-09-13T09:47:52.564Z,15.20
2018-09-13T09:50:21.641Z,15.53
2018-09-13T09:52:49.998Z,14.87
2018-09-13T09:55:22.195Z,15.30
2018-09-13T09:57:50.672Z,15.27
2018-09-13T10:00:23.071Z,16.00
2018-09-13T10:02:51.345Z,15.03
2018-09-13T10:05:19.542Z,17.97
2018-09-13T10:07:47.790Z,17.00
2018-09-13T10:10:16.055Z,16.73
2018-09-13T10:12:44.622Z,15.83
2018-09-13T10:15:18.185Z,14.83
2018-09-13T10:17:51.622Z,13.77
2018-09-13T10:21:26.680Z,13.47
2018-09-13T10:24:00.362Z,11.97
2018-09-13T10:26:34.519Z,12.67
2018-09-13T10:29:07.660Z,12.53
2018-09-13T10:31:41.271Z,12.03
2018-09-13T10:34:15.093Z,12.07
2018-09-13T10:36:48.706Z,12.13
2018-09-13T10:39:22.291Z,11.90
2018-09-13T10:41:56.005Z,12.33
2018-09-13T10:44:29.720Z,11.67
2018-09-13T10:47:03.175Z,12.83
2018-09-13T10:49:36.985Z,11.97
2018-09-13T10:52:09.545Z,12.00
2018-09-13T10:54:41.281Z,11.87
2018-09-13T10:57:14.875Z,10.40
2018-09-13T10:59:43.806Z,10.23
2018-09-13T11:02:12.258Z,11.67
2018-09-13T11:04:40.485Z,10.43
2018-09-13T11:07:10.142Z,10.57
2018-09-13T11:09:38.522Z,10.50
2018-09-13T11:12:07.877Z,10.10
2018-09-13T11:14:51.235Z,10.30
2018-09-13T11:17:20.709Z,11.03
2018-09-13T11:19:49.072Z,11.23
2018-09-13T11:22:17.518Z,10.67
2018-09-13T11:24:47.086Z,10.07
2018-09-13T11:27:15.634Z,10.63
2018-09-13T11:29:44.318Z,11.13
2018-09-13T11:32:13.058Z,11.57
2018-09-13T11:34:41.935Z,11.17
2018-09-13T11:37:10.125Z,11.93
2018-09-13T11:39:38.410Z,10.68
2018-09-13T11:42:07.348Z,10.80
2018-09-13T11:44:35.809Z,10.45
2018-09-13T11:47:04.098Z,9.65
2018-09-13T11:49:32.381Z,10.30
2018-09-13T11:52:00.593Z,9.88
2018-09-13T11:54:28.886Z,10.75
2018-09-13T11:56:57.162Z,9.68
2018-09-13T11:59:25.390Z,10.80
2018-09-13T12:01:53.705Z,10.53
2018-09-13T12:04:21.950Z,10.88
2018-09-13T12:06:50.227Z,11.75
2018-09-13T12:09:18.581Z,11.25
2018-09-13T12:11:46.770Z,10.58
2018-09-13T12:14:15.255Z,10.85
2018-09-13T12:16:43.567Z,11.60
2018-09-13T12:19:11.916Z,10.72
2018-09-13T12:21:40.489Z,10.48
2018-09-13T12:24:08.690Z,10.98
2018-09-13T12:26:37.056Z,10.95
2018-09-13T12:29:05.604Z,11.57
2018-09-13T12:31:33.814Z,11.03
2018-09-13T12:34:02.116Z,10.85
2018-09-13T12:36:30.350Z,10.82
2018-09-13T12:38:59.290Z,12.35
2018-09-13T12:41:27.600Z,10.98
2018-09-13T12:43:55.885Z,10.60
2018-09-13T12:46:24.112Z,10.88
2018-09-13T12:48:52.737Z,11.00
2018-09-13T12:51:21.523Z,11.53
2018-09-13T12:53:49.815Z,9.78
2018-09-13T12:56:18.357Z,10.53
2018-09-13T12:58:46.651Z,10.10
2018-09-13T13:01:15.125Z,11.10
2018-09-13T13:03:43.483Z,10.98
2018-09-13T13:06:11.703Z,10.10
2018-09-13T13:08:40.047Z,10.13
2018-09-13T13:11:08.340Z,9.83
2018-09-13T13:13:37.021Z,10.38
2018-09-13T13:16:05.297Z,10.30
2018-09-13T13:18:33.532Z,10.28
2018-09-13T13:21:01.782Z,9.53
2018-09-13T13:23:30.001Z,10.70
2018-09-13T13:25:58.341Z,10.03
2018-09-13T13:28:26.546Z,10.05
2018-09-13T13:30:54.778Z,8.98
2018-09-13T13:33:23.031Z,10.40
2018-09-13T13:35:51.728Z,10.30
2018-09-13T13:38:20.206Z,10.28
2018-09-13T13:40:48.438Z,9.25
2018-09-13T13:43:16.658Z,10.28
2018-09-13T13:45:45.261Z,9.43
2018-09-13T13:48:13.588Z,9.98
2018-09-13T13:50:42.331Z,9.73
2018-09-13T13:53:10.555Z,10.80
2018-09-13T13:55:38.831Z,10.03
2018-09-13T13:58:07.157Z,9.68
2018-09-13T14:00:35.432Z,8.63
2018-09-13T14:03:03.722Z,7.75
2018-09-13T14:05:31.951Z,8.63
2018-09-13T14:08:00.326Z,7.83
2018-09-13T14:10:28.526Z,7.87
2018-09-13T14:12:56.827Z,9.35
2018-09-13T14:15:25.059Z,8.18
2018-09-13T14:17:53.255Z,7.47
2018-09-13T14:20:22.118Z,9.15
2018-09-13T14:22:51.033Z,9.63
2018-09-13T14:25:19.289Z,11.03
2018-09-13T14:27:47.569Z,9.53
2018-09-13T14:30:15.775Z,9.48
2018-09-13T14:32:44.292Z,8.98
2018-09-13T14:35:12.552Z,9.98
2018-09-13T14:37:40.769Z,8.53
2018-09-13T14:40:09.077Z,9.58
2018-09-13T14:42:37.438Z,9.55
2018-09-13T14:45:05.757Z,8.98
2018-09-13T14:47:34.020Z,9.60
2018-09-13T14:50:02.224Z,9.15
2018-09-13T14:52:30.472Z,9.03
2018-09-13T14:54:58.712Z,7.58
2018-09-13T14:57:27.005Z,7.80
2018-09-13T14:59:55.202Z,8.08
2018-09-13T15:02:23.427Z,7.62
2018-09-13T15:04:51.946Z,7.33
2018-09-13T15:07:20.270Z,7.15
2018-09-13T15:09:48.413Z,8.00
2018-09-13T15:12:16.639Z,7.37
2018-09-13T15:14:45.020Z,7.58
2018-09-13T15:17:13.264Z,6.87
2018-09-13T15:19:41.508Z,8.05
2018-09-13T15:22:09.725Z,7.08
2018-09-13T15:24:38.062Z,7.60
2018-09-13T15:27:06.304Z,6.08
2018-09-13T15:29:34.493Z,6.50
2018-09-13T15:32:02.751Z,6.42
2018-09-13T15:34:30.963Z,6.37
2018-09-13T15:36:59.352Z,6.30
2018-09-13T15:39:27.646Z,6.87
2018-09-13T15:41:55.889Z,5.60
2018-09-13T15:44:24.140Z,5.90
2018-09-13T15:46:52.554Z,5.00
2018-09-13T15:49:21.005Z,5.40
2018-09-13T15:51:49.367Z,5.37
2018-09-13T15:54:17.581Z,5.33
2018-09-13T15:56:46.184Z,5.08
2018-09-13T15:59:14.406Z,4.80
2018-09-13T16:01:42.815Z,5.40
2018-09-13T16:04:11.003Z,5.27
2018-09-13T16:06:39.189Z,5.57
2018-09-13T16:09:08.054Z,4.83
2018-09-13T16:11:36.436Z,4.60
2018-09-13T16:14:04.641Z,5.20
2018-09-13T16:16:33.048Z,4.80
2018-09-13T16:19:01.530Z,5.30
2018-09-13T16:21:29.926Z,5.30
2018-09-13T16:23:58.283Z,4.97
2018-09-13T16:29:29.942Z,5.37
2018-09-13T16:31:58.277Z,5.70
2018-09-13T16:34:27.640Z,5.63
2018-09-13T16:37:07.950Z,5.47
2018-09-13T16:39:41.614Z,5.33
2018-09-13T16:42:15.277Z,5.40
2018-09-13T16:44:51.314Z,5.03
2018-09-13T16:47:30.825Z,5.83
2018-09-13T16:50:00.234Z,5.60
2018-09-13T16:52:29.438Z,5.43
2018-09-13T16:54:57.702Z,5.27
2018-09-13T16:57:25.988Z,4.83
2018-09-13T16:59:54.224Z,5.80
2018-09-13T17:02:22.661Z,5.50
2018-09-13T17:09:18.508Z,5.30
2018-09-13T17:11:46.830Z,4.83
2018-09-13T17:14:27.450Z,5.80
2018-09-13T17:16:55.720Z,5.17
2018-09-13T17:19:24.181Z,5.33
2018-09-13T17:21:52.685Z,5.77
2018-09-13T17:24:21.626Z,5.30
2018-09-13T17:26:50.021Z,5.10
2018-09-13T17:29:18.328Z,5.73
2018-09-13T17:31:46.770Z,5.77
2018-09-13T17:34:15.221Z,5.23
2018-09-13T17:36:43.572Z,6.00
2018-09-13T17:39:13.132Z,5.77
2018-09-13T17:41:42.057Z,6.27
2018-09-13T17:44:10.747Z,5.80
2018-09-13T17:46:39.795Z,5.23
2018-09-13T17:49:08.240Z,5.40
2018-09-13T17:51:37.523Z,5.20
2018-09-13T17:54:06.925Z,5.67
2018-09-13T17:56:35.184Z,5.60
2018-09-13T17:59:05.706Z,5.57
2018-09-13T18:01:34.045Z,5.93
2018-09-13T18:04:02.359Z,6.30
2018-09-13T18:06:30.654Z,5.70
2018-09-13T18:08:59.032Z,6.00
2018-09-13T18:11:27.451Z,6.43
2018-09-13T18:13:56.360Z,6.07
2018-09-13T18:16:24.812Z,5.50
2018-09-13T18:18:53.133Z,6.00
2018-09-13T18:21:22.100Z,6.13
2018-09-13T18:23:50.403Z,5.83
2018-09-13T18:26:18.669Z,5.47
2018-09-13T18:28:47.048Z,6.10
2018-09-13T18:31:15.369Z,5.83
2018-09-13T18:33:43.621Z,5.83
2018-09-13T18:36:11.948Z,5.40
2018-09-13T18:38:40.840Z,6.00
2018-09-13T18:41:09.500Z,5.90
2018-09-13T18:43:37.977Z,5.37
2018-09-13T18:46:06.317Z,5.33
2018-09-13T18:48:35.392Z,5.90
2018-09-13T18:51:03.667Z,5.90
2018-09-13T18:53:32.274Z,5.87
2018-09-13T18:56:00.724Z,5.53
2018-09-13T18:58:29.460Z,5.57
2018-09-13T19:00:57.934Z,5.73
2018-09-13T19:03:26.277Z,5.13
2018-09-13T19:05:54.738Z,5.63
2018-09-13T19:08:23.024Z,5.50
2018-09-13T19:10:51.492Z,6.17
2018-09-13T19:13:19.858Z,5.27
2018-09-13T19:15:48.276Z,5.57
2018-09-13T19:18:16.629Z,5.33
2018-09-13T19:20:44.975Z,5.17
2018-09-13T19:23:13.295Z,5.50
2018-09-13T19:25:41.640Z,5.13
2018-09-13T19:28:10.045Z,5.53
2018-09-13T19:30:38.389Z,5.70
2018-09-13T19:33:06.822Z,5.53
2018-09-13T19:35:35.155Z,5.33
2018-09-13T19:38:03.539Z,5.43
2018-09-13T19:40:32.107Z,5.80
2018-09-13T19:43:00.710Z,6.20
2018-09-13T19:45:29.084Z,5.80
2018-09-13T19:47:57.469Z,5.80
2018-09-13T19:50:25.875Z,5.80
2018-09-13T19:52:54.248Z,6.57
2018-09-13T19:55:22.650Z,6.27
2018-09-13T19:57:51.127Z,6.03
2018-09-13T20:00:19.775Z,6.63
2018-09-13T20:02:48.474Z,6.07
2018-09-13T20:05:18.010Z,5.80
2018-09-13T20:07:46.758Z,6.40
2018-09-13T20:10:15.716Z,6.63
2018-09-13T20:12:44.220Z,6.83
2018-09-13T20:15:12.754Z,6.37
2018-09-13T20:17:41.269Z,6.40
2018-09-13T20:20:09.870Z,6.57
2018-09-13T20:22:38.170Z,7.20
2018-09-13T20:25:06.811Z,6.73
2018-09-13T20:27:35.190Z,6.73
2018-09-13T20:30:03.438Z,7.10
2018-09-13T20:32:31.741Z,7.00
2018-09-13T20:35:00.120Z,7.30
2018-09-13T20:37:28.388Z,7.30
2018-09-13T20:39:56.634Z,7.43
2018-09-13T20:42:24.887Z,6.80
2018-09-13T20:44:53.170Z,6.53
2018-09-13T20:47:21.559Z,6.33
2018-09-13T20:49:49.820Z,7.03
2018-09-13T20:52:18.093Z,6.80
2018-09-13T20:54:46.351Z,6.87
2018-09-13T20:57:14.825Z,7.50
2018-09-13T20:59:43.344Z,7.23
2018-09-13T21:02:11.714Z,7.33
2018-09-13T21:04:39.944Z,7.60
2018-09-13T21:07:08.231Z,6.97
2018-09-13T21:09:36.585Z,7.27
2018-09-13T21:12:04.854Z,7.80
2018-09-13T21:14:33.070Z,7.77
2018-09-13T21:17:01.611Z,7.80
2018-09-13T21:19:29.954Z,7.90
2018-09-13T21:21:58.581Z,8.10
2018-09-13T21:24:26.891Z,8.23
2018-09-13T21:26:55.182Z,8.33
2018-09-13T21:29:23.989Z,8.00
2018-09-13T21:31:52.268Z,8.60
2018-09-13T21:34:20.807Z,7.83
2018-09-13T21:36:49.234Z,7.70
2018-09-13T21:39:17.506Z,8.53
2018-09-13T21:41:46.462Z,8.37
2018-09-13T21:44:14.950Z,8.77
2018-09-13T21:46:43.257Z,8.53
2018-09-13T21:49:11.665Z,8.00
2018-09-13T21:51:39.998Z,8.90
2018-09-13T21:54:08.248Z,8.07
2018-09-13T21:56:36.597Z,8.83
2018-09-13T21:59:05.416Z,8.80
2018-09-13T22:01:33.719Z,8.90
2018-09-13T22:04:02.403Z,8.80
2018-09-13T22:06:31.160Z,9.50
2018-09-13T22:08:59.583Z,9.67
2018-09-13T22:11:28.079Z,9.50
2018-09-13T22:13:56.674Z,9.33
2018-09-13T22:16:24.994Z,8.63
2018-09-13T22:18:53.209Z,8.27
2018-09-13T22:21:22.215Z,8.67
2018-09-13T22:23:50.431Z,9.10
2018-09-13T22:26:18.728Z,9.33
2018-09-13T22:28:47.057Z,8.83
2018-09-13T22:31:15.348Z,8.47
2018-09-13T22:33:43.717Z,8.90
2018-09-13T22:36:11.975Z,9.63
2018-09-13T22:38:40.264Z,9.57
2018-09-13T22:41:08.580Z,9.53
2018-09-13T22:43:42.433Z,9.00
2018-09-13T22:46:10.735Z,9.90
2018-09-13T22:48:39.042Z,10.20
2018-09-13T22:51:07.367Z,9.43
2018-09-13T22:53:35.669Z,10.17
2018-09-13T22:56:03.873Z,10.90
2018-09-13T22:58:32.157Z,10.50
2018-09-13T23:01:00.450Z,11.07
2018-09-13T23:03:28.799Z,10.53
2018-09-13T23:05:57.065Z,11.37
2018-09-13T23:08:25.466Z,12.17
2018-09-13T23:10:53.735Z,11.97
2018-09-13T23:13:22.115Z,11.40
2018-09-13T23:15:50.422Z,11.67
2018-09-13T23:18:18.656Z,12.87
2018-09-13T23:20:46.907Z,13.27
2018-09-13T23:23:15.209Z,12.00
2018-09-13T23:25:43.473Z,12.67
2018-09-13T23:28:11.928Z,12.03
2018-09-13T23:30:40.161Z,12.57
2018-09-13T23:33:09.602Z,13.07
2018-09-13T23:35:38.029Z,12.20
2018-09-13T23:38:06.338Z,13.37
2018-09-13T23:40:34.581Z,12.57
2018-09-13T23:43:02.790Z,13.03
2018-09-13T23:45:31.307Z,13.70
2018-09-13T23:48:00.036Z,12.67
2018-09-13T23:50:28.664Z,13.00
2018-09-13T23:52:56.972Z,13.73
2018-09-13T23:55:25.348Z,11.87
2018-09-13T23:57:53.622Z,12.63
